createdAt,value
2023-04-22T00:00:52.094Z,151.26
2023-04-22T00:01:55.405Z,199.9
2023-04-22T00:02:58.683Z,174.3
2023-04-22T00:04:01.996Z,261.34
2023-04-22T00:05:05.256Z,169.18
2023-04-22T00:06:08.566Z,230.62
2023-04-22T00:07:11.860Z,230.62
2023-04-22T00:08:14.154Z,217.82
2023-04-22T00:09:17.461Z,266.46
2023-04-22T00:10:20.753Z,151.26
2023-04-22T00:11:24.042Z,112.86
2023-04-22T00:12:27.341Z,171.74
2023-04-22T00:13:30.621Z,187.1
2023-04-22T00:14:32.930Z,258.78
2023-04-22T00:15:35.298Z,240.86
2023-04-22T00:16:38.538Z,222.94
2023-04-22T00:17:40.846Z,284.38
2023-04-22T00:18:43.159Z,261.34
2023-04-22T00:19:46.443Z,235.74
2023-04-22T00:20:49.775Z,263.9
2023-04-22T00:21:53.033Z,292.06
2023-04-22T00:22:56.310Z,212.7
2023-04-22T00:23:59.619Z,263.9
2023-04-22T00:25:02.904Z,292.06
2023-04-22T00:26:06.191Z,235.74
2023-04-22T00:27:09.512Z,184.54
2023-04-22T00:28:12.771Z,143.58
2023-04-22T00:29:16.076Z,123.1
2023-04-22T00:30:19.372Z,105.18
2023-04-22T00:31:22.652Z,38.62
2023-04-22T00:32:24.949Z,-7.47
2023-04-22T00:33:28.258Z,-12.59
2023-04-22T00:34:31.534Z,2.78
2023-04-22T00:35:34.844Z,-12.59
2023-04-22T00:36:38.132Z,-43.31
2023-04-22T00:37:41.419Z,-2.35
2023-04-22T00:38:44.718Z,-7.47
2023-04-22T00:39:47.031Z,7.9
2023-04-22T00:40:49.344Z,-20.27
2023-04-22T00:41:51.640Z,53.98
2023-04-22T00:42:53.959Z,79.58
2023-04-22T00:43:57.259Z,33.5
2023-04-22T00:45:00.533Z,107.74
2023-04-22T00:46:03.825Z,100.06
2023-04-22T00:47:07.131Z,92.38
2023-04-22T00:48:10.402Z,53.98
2023-04-22T00:49:13.715Z,89.82
2023-04-22T00:50:17.070Z,23.26
2023-04-22T00:51:20.281Z,13.02
2023-04-22T00:52:23.573Z,89.82
2023-04-22T00:53:26.919Z,61.66
2023-04-22T00:54:30.167Z,18.14
2023-04-22T00:55:33.475Z,46.3
2023-04-22T00:56:35.776Z,-7.47
2023-04-22T00:57:39.045Z,-10.03
2023-04-22T00:58:42.362Z,38.62
2023-04-22T00:59:45.697Z,13.02
2023-04-22T01:00:48.941Z,48.86
2023-04-22T01:01:52.217Z,15.58
2023-04-22T01:02:55.504Z,13.02
2023-04-22T01:03:57.821Z,41.18
2023-04-22T01:05:00.146Z,-2.35
2023-04-22T01:06:02.442Z,-2.35
2023-04-22T01:07:04.767Z,33.5
2023-04-22T01:08:08.061Z,0
2023-04-22T01:09:11.344Z,0
2023-04-22T01:10:14.637Z,15.58
2023-04-22T01:11:17.935Z,25.82
2023-04-22T01:12:21.227Z,2.78
2023-04-22T01:13:24.528Z,7.9
2023-04-22T01:14:27.801Z,-2.35
2023-04-22T01:15:31.103Z,-43.31
2023-04-22T01:16:34.422Z,-10.03
2023-04-22T01:17:37.676Z,-27.95
2023-04-22T01:18:40.987Z,5.34
2023-04-22T01:19:44.283Z,0
2023-04-22T01:20:46.589Z,25.82
2023-04-22T01:21:49.871Z,0.22
2023-04-22T01:22:53.177Z,-17.71
2023-04-22T01:23:56.465Z,10.46
2023-04-22T01:24:59.746Z,5.34
2023-04-22T01:26:03.100Z,7.9
2023-04-22T01:27:06.332Z,20.7
2023-04-22T01:28:08.647Z,-20.27
2023-04-22T01:29:10.946Z,7.9
2023-04-22T01:30:14.242Z,41.18
2023-04-22T01:31:16.573Z,13.02
2023-04-22T01:32:18.868Z,38.62
2023-04-22T01:33:22.168Z,38.62
2023-04-22T01:34:25.439Z,100.06
2023-04-22T01:35:28.736Z,89.82
2023-04-22T01:36:32.029Z,92.38
2023-04-22T01:37:35.318Z,87.26
2023-04-22T01:38:38.613Z,48.86
2023-04-22T01:39:41.924Z,61.66
2023-04-22T01:40:45.239Z,128.22
2023-04-22T01:41:48.495Z,125.66
2023-04-22T01:42:51.793Z,110.3
2023-04-22T01:43:55.094Z,115.42
2023-04-22T01:44:58.366Z,100.06
2023-04-22T01:46:00.672Z,120.54
2023-04-22T01:47:03.960Z,77.02
2023-04-22T01:48:07.260Z,79.58
2023-04-22T01:49:10.548Z,161.5
2023-04-22T01:50:13.849Z,79.58
2023-04-22T01:51:17.143Z,79.58
2023-04-22T01:52:20.436Z,94.94
2023-04-22T01:53:22.742Z,151.26
2023-04-22T01:54:25.058Z,161.5
2023-04-22T01:55:27.353Z,143.58
2023-04-22T01:56:30.656Z,92.38
2023-04-22T01:57:32.968Z,148.7
2023-04-22T01:58:36.280Z,92.38
2023-04-22T01:59:39.618Z,107.74
2023-04-22T02:00:42.837Z,84.7
2023-04-22T02:01:46.137Z,74.46
2023-04-22T02:02:49.422Z,94.94
2023-04-22T02:03:52.715Z,102.62
2023-04-22T02:04:56.028Z,128.22
2023-04-22T02:05:59.312Z,156.38
2023-04-22T02:07:02.594Z,117.98
2023-04-22T02:08:05.896Z,189.66
2023-04-22T02:09:09.179Z,115.42
2023-04-22T02:10:12.467Z,107.74
2023-04-22T02:11:14.781Z,148.7
2023-04-22T02:12:18.084Z,123.1
2023-04-22T02:13:21.365Z,94.94
2023-04-22T02:14:24.665Z,123.1
2023-04-22T02:15:27.987Z,84.7
2023-04-22T02:16:31.241Z,146.14
2023-04-22T02:17:33.564Z,171.74
2023-04-22T02:18:35.872Z,120.54
2023-04-22T02:19:38.181Z,89.82
2023-04-22T02:20:40.485Z,92.38
2023-04-22T02:21:43.780Z,156.38
2023-04-22T02:22:47.085Z,110.3
2023-04-22T02:23:50.365Z,153.82
2023-04-22T02:24:53.648Z,151.26
2023-04-22T02:27:00.231Z,112.86
2023-04-22T02:28:03.545Z,107.74
2023-04-22T02:29:06.815Z,141.02
2023-04-22T02:30:10.129Z,56.54
2023-04-22T02:31:13.410Z,69.34
2023-04-22T02:32:16.693Z,71.9
2023-04-22T02:33:19.975Z,94.94
2023-04-22T02:34:22.292Z,97.5
2023-04-22T02:35:25.574Z,66.78
2023-04-22T02:36:28.886Z,176.86
2023-04-22T02:37:32.237Z,153.82
2023-04-22T02:38:35.460Z,225.5
2023-04-22T02:39:38.762Z,215.26
2023-04-22T02:40:42.038Z,230.62
2023-04-22T02:41:45.365Z,179.42
2023-04-22T02:42:47.659Z,179.42
2023-04-22T02:43:49.956Z,197.34
2023-04-22T02:44:53.253Z,197.34
2023-04-22T02:45:56.553Z,251.1
2023-04-22T02:46:59.822Z,215.26
2023-04-22T02:48:03.129Z,184.54
2023-04-22T02:49:06.415Z,215.26
2023-04-22T02:50:09.720Z,189.66
2023-04-22T02:51:12.996Z,164.06
2023-04-22T02:52:16.296Z,233.18
2023-04-22T02:53:19.596Z,94.94
2023-04-22T02:54:22.884Z,141.02
2023-04-22T02:55:26.164Z,171.74
2023-04-22T02:56:29.452Z,156.38
2023-04-22T02:57:31.758Z,210.14
2023-04-22T02:58:35.063Z,238.3
2023-04-22T02:59:38.342Z,84.7
2023-04-22T03:00:41.651Z,228.06
2023-04-22T03:01:44.934Z,199.9
2023-04-22T03:02:48.235Z,258.78
2023-04-22T03:03:51.527Z,194.78
2023-04-22T03:04:53.838Z,143.58
2023-04-22T03:05:56.136Z,74.46
2023-04-22T03:06:58.451Z,158.94
2023-04-22T03:08:00.763Z,156.38
2023-04-22T03:09:03.074Z,184.54
2023-04-22T03:10:05.387Z,153.82
2023-04-22T03:11:08.736Z,184.54
2023-04-22T03:12:11.969Z,176.86
2023-04-22T03:13:15.258Z,192.22
2023-04-22T03:14:18.554Z,130.78
2023-04-22T03:15:21.840Z,156.38
2023-04-22T03:16:25.146Z,256.22
2023-04-22T03:17:27.435Z,199.9
2023-04-22T03:18:30.733Z,194.78
2023-04-22T03:19:34.177Z,245.98
2023-04-22T03:20:37.320Z,271.58
2023-04-22T03:21:40.648Z,166.62
2023-04-22T03:22:43.966Z,212.7
2023-04-22T03:23:47.213Z,207.58
2023-04-22T03:24:50.476Z,181.98
2023-04-22T03:25:53.779Z,146.14
2023-04-22T03:26:57.073Z,253.66
2023-04-22T03:28:00.373Z,263.9
2023-04-22T03:29:03.661Z,279.26
2023-04-22T03:30:06.963Z,220.38
2023-04-22T03:31:09.348Z,-317.22
2023-04-22T03:32:11.576Z,261.34
2023-04-22T03:33:13.876Z,164.06
2023-04-22T03:34:16.191Z,79.58
2023-04-22T03:35:19.478Z,56.54
2023-04-22T03:36:22.763Z,33.5
2023-04-22T03:37:26.080Z,51.42
2023-04-22T03:38:29.347Z,5.34
2023-04-22T03:39:32.656Z,-30.51
2023-04-22T03:40:35.936Z,-48.43
2023-04-22T03:41:39.218Z,-84.27
2023-04-22T03:42:42.528Z,-79.15
2023-04-22T03:43:45.826Z,-76.59
2023-04-22T03:44:49.126Z,-81.71
2023-04-22T03:45:52.417Z,-76.59
2023-04-22T03:46:55.697Z,-74.03
2023-04-22T03:47:57.997Z,-53.55
2023-04-22T03:49:01.302Z,-84.27
2023-04-22T03:50:04.576Z,-86.83
2023-04-22T03:51:07.861Z,-84.27
2023-04-22T03:52:11.177Z,-97.07
2023-04-22T03:53:14.469Z,-107.31
2023-04-22T03:54:17.749Z,-104.75
2023-04-22T03:55:20.076Z,-61.23
2023-04-22T03:56:22.369Z,-109.87
2023-04-22T03:57:24.684Z,-97.07
2023-04-22T03:58:27.006Z,-99.63
2023-04-22T03:59:30.325Z,-86.83
2023-04-22T04:00:33.714Z,-58.67
2023-04-22T04:01:37.002Z,-89.39
2023-04-22T04:02:40.328Z,-71.47
2023-04-22T04:03:43.586Z,-66.35
2023-04-22T04:04:46.899Z,-89.39
2023-04-22T04:05:50.194Z,-48.43
2023-04-22T04:06:53.482Z,-38.19
2023-04-22T04:07:56.769Z,-45.87
2023-04-22T04:09:00.063Z,-61.23
2023-04-22T04:10:03.357Z,-50.99
2023-04-22T04:11:06.642Z,-4.91
2023-04-22T04:12:08.955Z,0.22
2023-04-22T04:13:12.242Z,-20.27
2023-04-22T04:14:15.557Z,-2.35
2023-04-22T04:15:18.856Z,0
2023-04-22T04:16:22.128Z,-10.03
2023-04-22T04:17:25.425Z,5.34
2023-04-22T04:18:28.713Z,5.34
2023-04-22T04:19:32.031Z,15.58
2023-04-22T04:20:34.322Z,18.14
2023-04-22T04:21:36.705Z,56.54
2023-04-22T04:22:39.965Z,30.94
2023-04-22T04:23:43.222Z,-27.95
2023-04-22T04:24:46.498Z,56.54
2023-04-22T04:25:49.791Z,10.46
2023-04-22T04:26:53.074Z,41.18
2023-04-22T04:27:56.379Z,5.34
2023-04-22T04:28:59.682Z,-74.03
2023-04-22T04:30:02.966Z,-17.71
2023-04-22T04:31:06.252Z,-48.43
2023-04-22T04:32:09.545Z,-45.87
2023-04-22T04:33:12.837Z,-25.39
2023-04-22T04:34:16.122Z,-50.99
2023-04-22T04:35:18.431Z,-43.31
2023-04-22T04:36:21.715Z,-25.39
2023-04-22T04:37:25.020Z,-48.43
2023-04-22T04:38:28.297Z,-50.99
2023-04-22T04:40:34.899Z,-79.15
2023-04-22T04:41:38.214Z,-76.59
2023-04-22T04:42:41.496Z,-71.47
2023-04-22T04:43:43.794Z,-86.83
2023-04-22T04:44:46.096Z,-97.07
2023-04-22T04:45:48.404Z,-107.31
2023-04-22T04:46:50.703Z,-63.79
2023-04-22T04:47:53.042Z,-81.71
2023-04-22T04:48:55.321Z,-66.35
2023-04-22T04:49:58.631Z,-76.59
2023-04-22T04:51:01.906Z,-40.75
2023-04-22T04:52:05.222Z,-63.79
2023-04-22T04:53:08.497Z,-48.43
2023-04-22T04:54:11.813Z,7.9
2023-04-22T04:55:15.089Z,-40.75
2023-04-22T04:56:18.370Z,-22.83
2023-04-22T04:57:21.696Z,41.18
2023-04-22T04:58:24.987Z,48.86
2023-04-22T04:59:28.362Z,74.46
2023-04-22T05:00:31.539Z,107.74
2023-04-22T05:01:34.854Z,97.5
2023-04-22T05:02:37.144Z,105.18
2023-04-22T05:03:40.462Z,110.3
2023-04-22T05:04:43.728Z,66.78
2023-04-22T05:05:47.052Z,94.94
2023-04-22T05:06:50.322Z,128.22
2023-04-22T05:07:53.620Z,110.3
2023-04-22T05:08:56.913Z,125.66
2023-04-22T05:09:59.217Z,0
2023-04-22T05:11:01.531Z,0
2023-04-22T05:12:04.809Z,112.86
2023-04-22T05:13:08.106Z,141.02
2023-04-22T05:14:11.416Z,0
2023-04-22T05:15:14.682Z,125.66
2023-04-22T05:16:17.979Z,69.34
2023-04-22T05:17:21.320Z,117.98
2023-04-22T05:18:24.567Z,112.86
2023-04-22T05:19:27.867Z,146.14
2023-04-22T05:20:31.539Z,117.98
2023-04-22T05:21:34.824Z,115.42
2023-04-22T05:22:38.118Z,87.26
2023-04-22T05:23:41.524Z,36.06
2023-04-22T05:24:43.726Z,79.58
2023-04-22T05:25:47.015Z,107.74
2023-04-22T05:26:50.294Z,64.22
2023-04-22T05:27:53.593Z,36.06
2023-04-22T05:28:56.899Z,92.38
2023-04-22T05:30:00.177Z,-17.71
2023-04-22T05:31:03.486Z,64.22
2023-04-22T05:32:05.799Z,43.74
2023-04-22T05:33:08.104Z,43.74
2023-04-22T05:34:10.408Z,66.78
2023-04-22T05:35:12.707Z,38.62
2023-04-22T05:36:15.990Z,74.46
2023-04-22T05:37:19.279Z,69.34
2023-04-22T05:38:22.600Z,61.66
2023-04-22T05:39:25.926Z,38.62
2023-04-22T05:40:29.162Z,59.1
2023-04-22T05:41:32.452Z,5.34
2023-04-22T05:42:35.744Z,66.78
2023-04-22T05:43:39.027Z,59.1
2023-04-22T05:44:42.333Z,43.74
2023-04-22T05:45:45.639Z,82.14
2023-04-22T05:46:48.917Z,74.46
2023-04-22T05:47:52.205Z,123.1
2023-04-22T05:48:54.521Z,59.1
2023-04-22T05:49:57.802Z,69.34
2023-04-22T05:51:01.100Z,53.98
2023-04-22T05:52:04.391Z,30.94
2023-04-22T05:53:07.702Z,100.06
2023-04-22T05:54:11.000Z,5.34
2023-04-22T05:55:14.283Z,-22.83
2023-04-22T05:56:16.577Z,15.58
2023-04-22T05:57:18.884Z,-15.15
2023-04-22T05:58:22.188Z,41.18
2023-04-22T05:59:24.519Z,33.5
2023-04-22T06:00:26.789Z,18.14
2023-04-22T06:01:30.127Z,-7.47
2023-04-22T06:02:33.383Z,74.46
2023-04-22T06:03:36.700Z,-30.51
2023-04-22T06:04:39.958Z,-56.11
2023-04-22T06:05:43.264Z,-63.79
2023-04-22T06:06:46.554Z,-104.75
2023-04-22T06:07:49.842Z,-109.87
2023-04-22T06:08:53.133Z,-86.83
2023-04-22T06:09:56.536Z,-4.91
2023-04-22T06:10:59.899Z,38.62
2023-04-22T06:12:03.011Z,28.38
2023-04-22T06:13:06.484Z,115.42
2023-04-22T06:14:08.652Z,79.58
2023-04-22T06:15:12.107Z,123.1
2023-04-22T06:16:15.424Z,146.14
2023-04-22T06:17:18.491Z,151.26
2023-04-22T06:18:21.954Z,179.42
2023-04-22T06:19:25.063Z,217.82
2023-04-22T06:20:28.364Z,189.66
2023-04-22T06:21:30.910Z,41.35
2023-04-22T06:22:32.980Z,222.94
2023-04-22T06:23:35.452Z,228.06
2023-04-22T06:24:37.766Z,210.14
2023-04-22T06:25:40.892Z,222.94
2023-04-22T06:26:44.409Z,215.26
2023-04-22T06:27:47.659Z,181.98
2023-04-22T06:28:50.952Z,141.02
2023-04-22T06:29:54.185Z,130.78
2023-04-22T06:30:57.543Z,117.98
2023-04-22T06:32:00.772Z,100.06
2023-04-22T06:33:03.939Z,146.14
2023-04-22T06:34:07.233Z,169.18
2023-04-22T06:35:10.633Z,143.58
2023-04-22T06:36:13.830Z,169.18
2023-04-22T06:37:17.345Z,187.1
2023-04-22T06:38:19.582Z,128.22
2023-04-22T06:39:22.844Z,169.18
2023-04-22T06:40:26.001Z,123.1
2023-04-22T06:41:29.480Z,189.66
2023-04-22T06:42:32.863Z,130.78
2023-04-22T06:43:35.887Z,151.26
2023-04-22T06:44:39.180Z,156.38
2023-04-22T06:45:41.485Z,133.34
2023-04-22T06:46:43.855Z,143.58
2023-04-22T06:47:46.258Z,156.38
2023-04-22T06:48:48.594Z,141.02
2023-04-22T06:49:51.894Z,146.14
2023-04-22T06:50:55.061Z,100.06
2023-04-22T06:51:58.446Z,146.14
2023-04-22T06:53:01.568Z,102.62
2023-04-22T06:54:04.858Z,89.82
2023-04-22T06:55:08.299Z,97.5
2023-04-22T06:56:11.477Z,77.02
2023-04-22T06:57:14.758Z,135.9
2023-04-22T06:58:18.230Z,179.42
2023-04-22T06:59:21.342Z,105.18
2023-04-22T07:00:24.624Z,138.46
2023-04-22T07:01:28.116Z,112.86
2023-04-22T07:02:30.393Z,169.18
2023-04-22T07:03:33.666Z,161.5
2023-04-22T07:04:36.896Z,120.54
2023-04-22T07:05:40.205Z,138.46
2023-04-22T07:06:43.394Z,48.86
2023-04-22T07:07:46.681Z,-17.71
2023-04-22T07:08:49.984Z,18.14
2023-04-22T07:09:52.286Z,38.62
2023-04-22T07:10:54.671Z,89.82
2023-04-22T07:11:57.027Z,41.18
2023-04-22T07:12:59.250Z,-7.47
2023-04-22T07:14:02.717Z,-17.71
2023-04-22T07:15:05.942Z,-17.71
2023-04-22T07:16:09.202Z,64.22
2023-04-22T07:17:12.401Z,263.9
2023-04-22T07:18:15.830Z,238.3
2023-04-22T07:19:19.092Z,225.5
2023-04-22T07:20:22.268Z,243.42
2023-04-22T07:21:25.675Z,174.3
2023-04-22T07:22:29.022Z,261.34
2023-04-22T07:23:32.249Z,251.1
2023-04-22T07:24:35.481Z,0
2023-04-22T07:25:38.844Z,197.34
2023-04-22T07:26:42.238Z,220.38
2023-04-22T07:27:45.424Z,230.62
2023-04-22T07:28:48.826Z,240.86
2023-04-22T07:29:52.078Z,217.82
2023-04-22T07:30:55.296Z,171.74
2023-04-22T07:31:58.697Z,271.58
2023-04-22T07:33:02.034Z,274.14
2023-04-22T07:34:04.258Z,251.1
2023-04-22T07:35:06.563Z,251.1
2023-04-22T07:36:08.850Z,243.42
2023-04-22T07:37:11.151Z,240.86
2023-04-22T07:38:14.420Z,202.46
2023-04-22T07:39:17.698Z,258.78
2023-04-22T07:40:21.154Z,238.3
2023-04-22T07:41:24.521Z,248.54
2023-04-22T07:42:27.669Z,279.26
2023-04-22T07:43:30.959Z,279.26
2023-04-22T07:44:34.179Z,228.06
2023-04-22T07:45:37.572Z,317.66
2023-04-22T07:46:40.801Z,238.3
2023-04-22T07:47:44.107Z,289.5
2023-04-22T07:48:47.415Z,292.06
2023-04-22T07:49:50.658Z,-327.46
2023-04-22T07:50:52.958Z,315.1
2023-04-22T07:51:56.234Z,294.62
2023-04-22T07:52:59.519Z,289.5
2023-04-22T07:54:02.850Z,256.22
2023-04-22T07:55:06.193Z,263.9
2023-04-22T07:56:09.373Z,261.34
2023-04-22T07:57:12.800Z,292.06
2023-04-22T07:58:15.031Z,317.66
2023-04-22T07:59:17.393Z,251.1
2023-04-22T08:00:20.774Z,222.94
2023-04-22T08:01:23.078Z,294.62
2023-04-22T08:02:25.271Z,307.42
2023-04-22T08:03:28.663Z,243.42
2023-04-22T08:04:31.813Z,253.66
2023-04-22T08:05:35.304Z,279.26
2023-04-22T08:06:38.634Z,217.82
2023-04-22T08:07:41.982Z,151.26
2023-04-22T08:08:45.283Z,210.14
2023-04-22T08:09:48.512Z,141.02
2023-04-22T08:10:51.751Z,194.78
2023-04-22T08:11:55.071Z,181.98
2023-04-22T08:12:58.471Z,192.22
2023-04-22T08:14:01.643Z,238.3
2023-04-22T08:15:04.908Z,256.22
2023-04-22T08:16:07.326Z,245.98
2023-04-22T08:17:10.497Z,230.62
2023-04-22T08:18:13.882Z,228.06
2023-04-22T08:19:17.215Z,0
2023-04-22T08:20:20.420Z,222.94
2023-04-22T08:21:23.686Z,238.3
2023-04-22T08:22:26.988Z,256.22
2023-04-22T08:23:29.292Z,135.9
2023-04-22T08:24:31.608Z,261.34
2023-04-22T08:25:33.924Z,0
2023-04-22T08:26:36.214Z,125.66
2023-04-22T08:27:39.682Z,89.82
2023-04-22T08:28:42.886Z,102.62
2023-04-22T08:29:46.100Z,189.66
2023-04-22T08:30:49.429Z,207.58
2023-04-22T08:31:52.683Z,207.58
2023-04-22T08:32:55.963Z,38.62
2023-04-22T08:33:59.277Z,77.02
2023-04-22T08:35:02.642Z,0.22
2023-04-22T08:36:05.838Z,-33.07
2023-04-22T08:37:09.150Z,166.62
2023-04-22T08:38:12.429Z,166.62
2023-04-22T08:39:15.722Z,256.22
2023-04-22T08:40:18.019Z,156.38
2023-04-22T08:41:21.350Z,148.7
2023-04-22T08:42:24.614Z,199.9
2023-04-22T08:43:27.958Z,146.14
2023-04-22T08:44:31.198Z,220.38
2023-04-22T08:45:34.676Z,276.7
2023-04-22T08:46:37.927Z,197.34
2023-04-22T08:47:40.199Z,176.86
2023-04-22T08:48:42.525Z,138.46
2023-04-22T08:49:44.725Z,141.02
2023-04-22T08:50:47.098Z,166.62
2023-04-22T08:51:50.335Z,187.1
2023-04-22T08:52:53.683Z,212.7
2023-04-22T08:53:56.934Z,248.54
2023-04-22T08:55:00.215Z,233.18
2023-04-22T08:56:03.483Z,212.7
2023-04-22T08:57:06.761Z,171.74
2023-04-22T08:58:10.067Z,166.62
2023-04-22T08:59:13.362Z,151.26
2023-04-22T09:00:16.674Z,146.14
2023-04-22T09:01:19.989Z,217.82
2023-04-22T09:02:23.340Z,184.54
2023-04-22T09:03:26.583Z,253.66
2023-04-22T09:04:28.830Z,135.9
2023-04-22T09:05:32.141Z,102.62
2023-04-22T09:06:35.668Z,192.22
2023-04-22T09:07:39.015Z,243.42
2023-04-22T09:08:42.241Z,212.7
2023-04-22T09:09:45.540Z,217.82
2023-04-22T09:10:48.996Z,151.26
2023-04-22T09:11:51.129Z,171.74
2023-04-22T09:12:54.632Z,13.02
2023-04-22T09:13:56.855Z,-140.59
2023-04-22T09:14:59.207Z,202.45
2023-04-22T09:16:02.483Z,105.17
2023-04-22T09:17:05.748Z,197.33
2023-04-22T09:18:09.121Z,-27.96
2023-04-22T09:19:12.528Z,59.09
2023-04-22T09:20:15.782Z,84.69
2023-04-22T09:21:18.907Z,263.89
2023-04-22T09:22:22.305Z,-309.55
2023-04-22T09:23:25.707Z,-178.99
2023-04-22T09:24:28.886Z,-2.35
2023-04-22T09:25:32.086Z,194.78
2023-04-22T09:26:35.834Z,-171.31
2023-04-22T09:27:39.229Z,-306.99
2023-04-22T09:28:41.531Z,97.49
2023-04-22T09:29:44.726Z,25.81
2023-04-22T09:30:48.116Z,-102.2
2023-04-22T09:31:51.327Z,-38.2
2023-04-22T09:32:54.635Z,79.57
2023-04-22T09:33:58.051Z,-217.39
2023-04-22T09:35:01.214Z,243.41
2023-04-22T09:36:03.545Z,146.13
2023-04-22T09:37:05.839Z,243.41
2023-04-22T09:38:08.222Z,-102.19
2023-04-22T09:39:10.599Z,-184.11
2023-04-22T09:40:13.675Z,-173.87
2023-04-22T09:41:17.073Z,-173.87
2023-04-22T09:42:20.433Z,-153.39
2023-04-22T09:43:23.658Z,-127.79
2023-04-22T09:44:26.902Z,-166.19
2023-04-22T09:45:30.147Z,302.29
2023-04-22T09:46:33.579Z,194.77
2023-04-22T09:47:36.837Z,210.13
2023-04-22T09:48:40.140Z,-306.99
2023-04-22T09:49:43.417Z,-222.51
2023-04-22T09:50:46.606Z,-227.63
2023-04-22T09:51:49.894Z,-153.39
2023-04-22T09:52:52.200Z,-63.79
2023-04-22T09:53:55.488Z,30.94
2023-04-22T09:54:58.788Z,48.86
2023-04-22T09:56:02.190Z,33.5
2023-04-22T09:57:05.447Z,-7.47
2023-04-22T09:58:08.688Z,23.26
2023-04-22T09:59:11.955Z,38.62
2023-04-22T10:00:14.290Z,18.14
2023-04-22T10:01:16.690Z,30.94
2023-04-22T10:02:18.929Z,-130.35
2023-04-22T10:03:21.239Z,-248.11
2023-04-22T10:04:24.540Z,-173.87
2023-04-22T10:05:27.874Z,-43.31
2023-04-22T10:06:31.102Z,-268.59
2023-04-22T10:07:34.362Z,-317.23
2023-04-22T10:08:37.741Z,-219.95
2023-04-22T10:09:40.946Z,-168.75
2023-04-22T10:10:44.339Z,-173.87
2023-04-22T10:11:47.575Z,-276.27
2023-04-22T10:12:50.834Z,248.53
2023-04-22T10:13:54.171Z,38.61
2023-04-22T10:14:57.397Z,-17.72
2023-04-22T10:16:00.772Z,71.89
2023-04-22T10:17:03.031Z,0
2023-04-22T10:18:06.287Z,138.45
2023-04-22T10:19:09.595Z,115.41
2023-04-22T10:20:11.884Z,138.45
2023-04-22T10:21:15.190Z,0
2023-04-22T10:22:18.459Z,289.49
2023-04-22T10:23:21.783Z,289.49
2023-04-22T10:24:24.075Z,-161.07
2023-04-22T10:25:26.405Z,-127.79
2023-04-22T10:26:28.717Z,-97.07
2023-04-22T10:27:31.033Z,-27.95
2023-04-22T10:28:34.309Z,13.02
2023-04-22T10:29:37.593Z,23.26
2023-04-22T10:30:40.884Z,102.62
2023-04-22T10:31:44.185Z,-66.35
2023-04-22T10:32:47.594Z,0
2023-04-22T10:33:50.765Z,28.38
2023-04-22T10:34:54.050Z,77.02
2023-04-22T10:35:57.350Z,69.34
2023-04-22T10:37:00.702Z,105.18
2023-04-22T10:38:03.938Z,77.02
2023-04-22T10:39:07.361Z,117.98
2023-04-22T10:40:10.600Z,158.94
2023-04-22T10:41:12.834Z,56.54
2023-04-22T10:42:16.107Z,120.54
2023-04-22T10:43:19.438Z,120.54
2023-04-22T10:44:22.700Z,112.86
2023-04-22T10:45:26.027Z,120.54
2023-04-22T10:46:29.282Z,71.9
2023-04-22T10:47:32.611Z,153.82
2023-04-22T10:48:34.896Z,115.42
2023-04-22T10:49:37.196Z,36.06
2023-04-22T10:50:40.520Z,84.7
2023-04-22T10:51:42.848Z,79.58
2023-04-22T10:52:45.159Z,66.78
2023-04-22T10:53:48.397Z,164.06
2023-04-22T10:54:51.696Z,97.5
2023-04-22T10:55:54.995Z,89.82
2023-04-22T10:56:58.277Z,92.38
2023-04-22T10:58:01.586Z,130.78
2023-04-22T10:59:04.856Z,100.06
2023-04-22T11:00:08.155Z,120.54
2023-04-22T11:01:11.478Z,184.54
2023-04-22T11:02:14.730Z,151.26
2023-04-22T11:03:18.035Z,87.26
2023-04-22T11:04:21.325Z,107.74
2023-04-22T11:05:24.611Z,171.74
2023-04-22T11:06:26.935Z,100.06
2023-04-22T11:07:30.267Z,94.94
2023-04-22T11:08:33.496Z,-33.07
2023-04-22T11:09:36.801Z,7.9
2023-04-22T11:10:40.262Z,94.94
2023-04-22T11:11:43.444Z,143.58
2023-04-22T11:12:46.689Z,77.02
2023-04-22T11:13:49.036Z,61.66
2023-04-22T11:14:51.314Z,77.02
2023-04-22T11:15:53.629Z,128.22
2023-04-22T11:16:56.013Z,51.42
2023-04-22T11:17:59.352Z,-22.83
2023-04-22T11:19:02.619Z,20.7
2023-04-22T11:20:05.800Z,56.54
2023-04-22T11:21:09.118Z,5.34
2023-04-22T11:22:12.415Z,46.3
2023-04-22T11:23:15.697Z,-15.15
2023-04-22T11:24:18.951Z,-7.47
2023-04-22T11:25:22.286Z,-45.87
2023-04-22T11:26:25.558Z,-94.51
2023-04-22T11:27:28.909Z,-71.47
2023-04-22T11:28:32.121Z,-56.11
2023-04-22T11:29:35.397Z,-102.19
2023-04-22T11:30:37.711Z,-150.83
2023-04-22T11:31:41.139Z,-166.19
2023-04-22T11:32:44.320Z,-219.95
2023-04-22T11:33:47.605Z,-304.43
2023-04-22T11:34:50.906Z,-283.95
2023-04-22T11:35:54.244Z,-191.79
2023-04-22T11:36:57.600Z,-260.91
2023-04-22T11:37:59.817Z,-268.59
2023-04-22T11:39:02.100Z,-209.71
2023-04-22T11:40:05.387Z,-260.91
2023-04-22T11:41:08.711Z,-217.39
2023-04-22T11:42:12.038Z,-181.55
2023-04-22T11:43:15.306Z,-253.23
2023-04-22T11:44:18.628Z,-232.75
2023-04-22T11:45:22.024Z,-276.27
2023-04-22T11:46:25.291Z,-250.67
2023-04-22T11:47:28.526Z,-268.59
2023-04-22T11:48:31.803Z,-237.87
2023-04-22T11:49:35.067Z,-227.63
2023-04-22T11:50:38.397Z,-199.47
2023-04-22T11:51:41.768Z,-209.71
2023-04-22T11:52:44.026Z,-227.63
2023-04-22T11:53:47.358Z,-194.35
2023-04-22T11:54:50.507Z,-214.83
2023-04-22T11:55:54.023Z,-253.23
2023-04-22T11:56:57.075Z,-273.71
2023-04-22T11:58:00.446Z,-286.51
2023-04-22T11:59:03.737Z,-281.39
2023-04-22T12:00:05.997Z,-281.39
2023-04-22T12:01:08.373Z,-283.95
2023-04-22T12:02:10.747Z,-286.51
2023-04-22T12:03:12.938Z,-289.07
2023-04-22T12:04:16.192Z,-268.59
2023-04-22T12:05:19.588Z,-283.95
2023-04-22T12:06:22.830Z,-283.95
2023-04-22T12:07:26.078Z,-294.19
2023-04-22T12:08:29.421Z,-283.95
2023-04-22T12:09:32.748Z,325.33
2023-04-22T12:10:35.983Z,-327.47
2023-04-22T12:11:39.228Z,312.53
2023-04-22T12:12:42.514Z,302.29
2023-04-22T12:13:45.871Z,294.61
2023-04-22T12:14:49.134Z,281.81
2023-04-22T12:15:52.420Z,263.89
2023-04-22T12:16:54.691Z,245.97
2023-04-22T12:17:58.002Z,248.53
2023-04-22T12:19:01.289Z,222.93
2023-04-22T12:20:04.576Z,189.65
2023-04-22T12:21:07.905Z,197.33
2023-04-22T12:22:11.315Z,174.29
2023-04-22T12:23:14.505Z,192.21
2023-04-22T12:24:16.775Z,-304.43
2023-04-22T12:25:19.068Z,-273.71
2023-04-22T12:26:21.393Z,304.85
2023-04-22T12:27:23.842Z,276.69
2023-04-22T12:28:27.157Z,256.21
2023-04-22T12:29:30.431Z,284.37
2023-04-22T12:30:34.183Z,-327.47
2023-04-22T12:31:37.461Z,-286.51
2023-04-22T12:32:40.657Z,-219.95
2023-04-22T12:33:44.107Z,-194.35
2023-04-22T12:34:47.266Z,-212.27
2023-04-22T12:35:50.553Z,-125.23
2023-04-22T12:36:53.826Z,-207.15
2023-04-22T12:37:57.261Z,-199.47
2023-04-22T12:39:00.423Z,-168.75
2023-04-22T12:40:03.841Z,-212.27
2023-04-22T12:41:06.046Z,18.14
2023-04-22T12:42:09.391Z,-117.55
2023-04-22T12:43:12.731Z,-94.51
2023-04-22T12:44:15.900Z,-109.87
2023-04-22T12:45:19.190Z,-191.79
2023-04-22T12:46:22.473Z,-225.07
2023-04-22T12:47:25.864Z,-232.75
2023-04-22T12:48:28.081Z,-166.19
2023-04-22T12:49:30.510Z,0
2023-04-22T12:50:32.764Z,-235.31
2023-04-22T12:51:35.114Z,-276.27
2023-04-22T12:52:38.313Z,-255.79
2023-04-22T12:53:41.674Z,-296.75
2023-04-22T12:54:44.898Z,-266.03
2023-04-22T12:55:48.163Z,-283.95
2023-04-22T12:56:51.484Z,-299.31
2023-04-22T12:57:54.852Z,-299.31
2023-04-22T12:58:58.139Z,-301.87
2023-04-22T13:00:01.431Z,-278.83
2023-04-22T13:01:04.655Z,-217.39
2023-04-22T13:02:07.938Z,-258.35
2023-04-22T13:03:11.334Z,-263.47
2023-04-22T13:04:14.661Z,-283.95
2023-04-22T13:05:16.849Z,-273.71
2023-04-22T13:06:20.121Z,-301.87
2023-04-22T13:07:23.538Z,-301.87
2023-04-22T13:08:26.728Z,-324.91
2023-04-22T13:09:30.118Z,325.33
2023-04-22T13:10:33.280Z,-317.23
2023-04-22T13:11:36.585Z,-312.11
2023-04-22T13:12:40.331Z,-322.35
2023-04-22T13:13:42.667Z,-322.35
2023-04-22T13:14:44.920Z,-314.67
2023-04-22T13:15:48.370Z,-319.79
2023-04-22T13:16:50.649Z,-306.99
2023-04-22T13:17:53.946Z,-319.79